sensor_id;sensor_type;location;lat;lon;timestamp;P1;durP1;ratioP1;P2;durP2;ratioP2
70997;SDS011;58663;52.040;4.634;2022-10-17T00:00:22;10.82;;;7.35;;
70997;SDS011;58663;52.040;4.634;2022-10-17T00:02:47;12.30;;;7.70;;
70997;SDS011;58663;52.040;4.634;2022-10-17T00:05:13;11.25;;;8.18;;
70997;SDS011;58663;52.040;4.634;2022-10-17T00:07:38;15.98;;;7.57;;
70997;SDS011;58663;52.040;4.634;2022-10-17T00:10:05;13.02;;;7.78;;
70997;SDS011;58663;52.040;4.634;2022-10-17T00:12:31;12.80;;;7.13;;
70997;SDS011;58663;52.040;4.634;2022-10-17T00:14:56;16.38;;;7.32;;
70997;SDS011;58663;52.040;4.634;2022-10-17T00:17:22;12.88;;;7.75;;
70997;SDS011;58663;52.040;4.634;2022-10-17T00:19:47;16.05;;;7.03;;
70997;SDS011;58663;52.040;4.634;2022-10-17T00:22:12;11.45;;;7.88;;
70997;SDS011;58663;52.040;4.634;2022-10-17T00:24:38;10.50;;;8.00;;
70997;SDS011;58663;52.040;4.634;2022-10-17T00:27:03;11.02;;;8.70;;
70997;SDS011;58663;52.040;4.634;2022-10-17T00:29:28;10.68;;;7.55;;
70997;SDS011;58663;52.040;4.634;2022-10-17T00:31:57;11.05;;;7.95;;
70997;SDS011;58663;52.040;4.634;2022-10-17T00:34:23;14.45;;;8.60;;
70997;SDS011;58663;52.040;4.634;2022-10-17T00:36:49;11.20;;;8.00;;
70997;SDS011;58663;52.040;4.634;2022-10-17T00:39:14;14.50;;;8.85;;
70997;SDS011;58663;52.040;4.634;2022-10-17T00:41:39;13.57;;;8.85;;
70997;SDS011;58663;52.040;4.634;2022-10-17T00:46:57;13.77;;;8.93;;
70997;SDS011;58663;52.040;4.634;2022-10-17T00:49:25;17.98;;;9.38;;
70997;SDS011;58663;52.040;4.634;2022-10-17T00:51:53;12.98;;;9.10;;
70997;SDS011;58663;52.040;4.634;2022-10-17T00:54:22;13.68;;;9.40;;
70997;SDS011;58663;52.040;4.634;2022-10-17T00:56:49;13.55;;;8.93;;
70997;SDS011;58663;52.040;4.634;2022-10-17T00:59:15;14.82;;;9.75;;
70997;SDS011;58663;52.040;4.634;2022-10-17T01:01:43;14.50;;;8.95;;
70997;SDS011;58663;52.040;4.634;2022-10-17T01:04:13;12.68;;;8.68;;
70997;SDS011;58663;52.040;4.634;2022-10-17T01:06:38;12.32;;;9.25;;
70997;SDS011;58663;52.040;4.634;2022-10-17T01:09:04;14.35;;;9.95;;
70997;SDS011;58663;52.040;4.634;2022-10-17T01:11:38;16.40;;;9.30;;
70997;SDS011;58663;52.040;4.634;2022-10-17T01:14:32;15.27;;;10.30;;
70997;SDS011;58663;52.040;4.634;2022-10-17T01:20:16;14.35;;;9.18;;
70997;SDS011;58663;52.040;4.634;2022-10-17T01:23:26;15.10;;;9.73;;
70997;SDS011;58663;52.040;4.634;2022-10-17T01:32:08;13.00;;;9.40;;
70997;SDS011;58663;52.040;4.634;2022-10-17T01:34:32;14.52;;;9.55;;
70997;SDS011;58663;52.040;4.634;2022-10-17T01:39:49;14.77;;;9.93;;
70997;SDS011;58663;52.040;4.634;2022-10-17T01:42:30;14.65;;;9.98;;
70997;SDS011;58663;52.040;4.634;2022-10-17T01:47:38;16.23;;;10.15;;
70997;SDS011;58663;52.040;4.634;2022-10-17T01:50:16;19.20;;;10.30;;
70997;SDS011;58663;52.040;4.634;2022-10-17T01:52:44;15.73;;;10.13;;
70997;SDS011;58663;52.040;4.634;2022-10-17T01:55:14;15.20;;;10.32;;
70997;SDS011;58663;52.040;4.634;2022-10-17T01:57:45;17.42;;;10.35;;
70997;SDS011;58663;52.040;4.634;2022-10-17T02:00:16;16.10;;;10.18;;
70997;SDS011;58663;52.040;4.634;2022-10-17T02:02:43;13.38;;;9.93;;
70997;SDS011;58663;52.040;4.634;2022-10-17T02:05:10;13.82;;;9.13;;
70997;SDS011;58663;52.040;4.634;2022-10-17T02:07:36;16.15;;;11.07;;
70997;SDS011;58663;52.040;4.634;2022-10-17T02:10:03;15.93;;;10.55;;
70997;SDS011;58663;52.040;4.634;2022-10-17T02:20:28;13.43;;;9.18;;
70997;SDS011;58663;52.040;4.634;2022-10-17T02:23:08;16.88;;;8.80;;
70997;SDS011;58663;52.040;4.634;2022-10-17T02:25:37;17.15;;;9.93;;
70997;SDS011;58663;52.040;4.634;2022-10-17T02:30:54;15.43;;;9.98;;
70997;SDS011;58663;52.040;4.634;2022-10-17T02:33:27;19.42;;;10.65;;
70997;SDS011;58663;52.040;4.634;2022-10-17T02:35:58;17.52;;;10.07;;
70997;SDS011;58663;52.040;4.634;2022-10-17T02:38:25;21.45;;;11.10;;
70997;SDS011;58663;52.040;4.634;2022-10-17T02:40:52;14.18;;;10.30;;
70997;SDS011;58663;52.040;4.634;2022-10-17T02:43:18;15.00;;;10.57;;
70997;SDS011;58663;52.040;4.634;2022-10-17T02:45:44;15.15;;;10.50;;
70997;SDS011;58663;52.040;4.634;2022-10-17T02:48:11;16.70;;;10.98;;
70997;SDS011;58663;52.040;4.634;2022-10-17T02:50:44;20.40;;;11.57;;
70997;SDS011;58663;52.040;4.634;2022-10-17T02:53:46;15.07;;;10.70;;
70997;SDS011;58663;52.040;4.634;2022-10-17T02:56:16;17.88;;;10.55;;
70997;SDS011;58663;52.040;4.634;2022-10-17T02:58:45;19.27;;;11.13;;
70997;SDS011;58663;52.040;4.634;2022-10-17T03:01:13;17.77;;;11.30;;
70997;SDS011;58663;52.040;4.634;2022-10-17T03:03:38;20.90;;;11.75;;
70997;SDS011;58663;52.040;4.634;2022-10-17T03:06:04;17.70;;;11.05;;
70997;SDS011;58663;52.040;4.634;2022-10-17T03:08:29;15.73;;;11.30;;
70997;SDS011;58663;52.040;4.634;2022-10-17T03:10:55;23.42;;;12.88;;
70997;SDS011;58663;52.040;4.634;2022-10-17T03:13:20;19.63;;;12.20;;
70997;SDS011;58663;52.040;4.634;2022-10-17T03:15:45;19.58;;;11.75;;
70997;SDS011;58663;52.040;4.634;2022-10-17T03:18:11;15.93;;;11.45;;
70997;SDS011;58663;52.040;4.634;2022-10-17T03:20:36;19.13;;;12.20;;
70997;SDS011;58663;52.040;4.634;2022-10-17T03:23:01;20.63;;;12.23;;
70997;SDS011;58663;52.040;4.634;2022-10-17T03:25:27;18.38;;;11.77;;
70997;SDS011;58663;52.040;4.634;2022-10-17T03:27:52;20.05;;;12.27;;
70997;SDS011;58663;52.040;4.634;2022-10-17T03:30:18;21.90;;;13.02;;
70997;SDS011;58663;52.040;4.634;2022-10-17T03:32:44;15.73;;;11.60;;
70997;SDS011;58663;52.040;4.634;2022-10-17T03:35:09;18.05;;;12.02;;
70997;SDS011;58663;52.040;4.634;2022-10-17T03:37:34;16.45;;;11.50;;
70997;SDS011;58663;52.040;4.634;2022-10-17T03:40:00;19.13;;;12.20;;
70997;SDS011;58663;52.040;4.634;2022-10-17T03:42:25;16.90;;;11.25;;
70997;SDS011;58663;52.040;4.634;2022-10-17T03:44:50;18.92;;;11.48;;
70997;SDS011;58663;52.040;4.634;2022-10-17T03:47:16;19.58;;;11.40;;
70997;SDS011;58663;52.040;4.634;2022-10-17T03:49:41;19.05;;;10.90;;
70997;SDS011;58663;52.040;4.634;2022-10-17T03:52:13;16.38;;;10.45;;
70997;SDS011;58663;52.040;4.634;2022-10-17T03:54:39;18.00;;;10.55;;
70997;SDS011;58663;52.040;4.634;2022-10-17T03:57:04;15.95;;;10.15;;
70997;SDS011;58663;52.040;4.634;2022-10-17T03:59:29;17.83;;;10.40;;
70997;SDS011;58663;52.040;4.634;2022-10-17T04:01:55;17.40;;;10.73;;
70997;SDS011;58663;52.040;4.634;2022-10-17T04:04:20;17.00;;;9.98;;
70997;SDS011;58663;52.040;4.634;2022-10-17T04:06:46;17.33;;;9.93;;
70997;SDS011;58663;52.040;4.634;2022-10-17T04:09:11;17.42;;;9.73;;
70997;SDS011;58663;52.040;4.634;2022-10-17T04:11:36;15.35;;;10.63;;
70997;SDS011;58663;52.040;4.634;2022-10-17T04:14:02;13.45;;;9.93;;
70997;SDS011;58663;52.040;4.634;2022-10-17T04:16:27;15.93;;;9.63;;
70997;SDS011;58663;52.040;4.634;2022-10-17T04:18:53;14.38;;;9.15;;
70997;SDS011;58663;52.040;4.634;2022-10-17T04:21:20;17.27;;;9.60;;
70997;SDS011;58663;52.040;4.634;2022-10-17T04:23:45;16.75;;;9.90;;
70997;SDS011;58663;52.040;4.634;2022-10-17T04:26:10;15.20;;;9.98;;
70997;SDS011;58663;52.040;4.634;2022-10-17T04:28:36;18.73;;;10.18;;
70997;SDS011;58663;52.040;4.634;2022-10-17T04:31:05;16.85;;;9.77;;
70997;SDS011;58663;52.040;4.634;2022-10-17T04:33:32;16.55;;;10.15;;
70997;SDS011;58663;52.040;4.634;2022-10-17T04:36:02;21.10;;;10.60;;
70997;SDS011;58663;52.040;4.634;2022-10-17T04:38:32;17.70;;;10.32;;
70997;SDS011;58663;52.040;4.634;2022-10-17T04:40:58;17.50;;;9.68;;
70997;SDS011;58663;52.040;4.634;2022-10-17T04:43:27;15.60;;;10.43;;
70997;SDS011;58663;52.040;4.634;2022-10-17T04:45:53;14.48;;;9.45;;
70997;SDS011;58663;52.040;4.634;2022-10-17T04:48:18;15.43;;;9.68;;
70997;SDS011;58663;52.040;4.634;2022-10-17T04:50:53;19.48;;;9.90;;
70997;SDS011;58663;52.040;4.634;2022-10-17T04:53:26;16.65;;;9.90;;
70997;SDS011;58663;52.040;4.634;2022-10-17T04:55:52;15.85;;;9.20;;
70997;SDS011;58663;52.040;4.634;2022-10-17T04:58:18;15.60;;;9.00;;
70997;SDS011;58663;52.040;4.634;2022-10-17T05:00:43;19.05;;;9.73;;
70997;SDS011;58663;52.040;4.634;2022-10-17T05:03:09;15.10;;;10.20;;
70997;SDS011;58663;52.040;4.634;2022-10-17T05:05:37;19.90;;;9.68;;
70997;SDS011;58663;52.040;4.634;2022-10-17T05:08:03;16.35;;;9.98;;
70997;SDS011;58663;52.040;4.634;2022-10-17T05:10:39;19.02;;;10.80;;
70997;SDS011;58663;52.040;4.634;2022-10-17T05:13:06;17.88;;;10.13;;
70997;SDS011;58663;52.040;4.634;2022-10-17T05:15:31;19.88;;;10.15;;
70997;SDS011;58663;52.040;4.634;2022-10-17T05:17:57;16.63;;;10.13;;
70997;SDS011;58663;52.040;4.634;2022-10-17T05:20:23;18.48;;;10.15;;
70997;SDS011;58663;52.040;4.634;2022-10-17T05:22:48;18.25;;;9.93;;
70997;SDS011;58663;52.040;4.634;2022-10-17T05:25:14;18.58;;;9.95;;
70997;SDS011;58663;52.040;4.634;2022-10-17T05:27:39;16.65;;;9.85;;
70997;SDS011;58663;52.040;4.634;2022-10-17T05:30:04;18.50;;;10.35;;
70997;SDS011;58663;52.040;4.634;2022-10-17T05:32:30;15.23;;;9.98;;
70997;SDS011;58663;52.040;4.634;2022-10-17T05:34:56;18.05;;;9.43;;
70997;SDS011;58663;52.040;4.634;2022-10-17T05:37:21;21.13;;;10.75;;
70997;SDS011;58663;52.040;4.634;2022-10-17T05:39:46;18.92;;;10.02;;
70997;SDS011;58663;52.040;4.634;2022-10-17T05:42:12;14.90;;;9.60;;
70997;SDS011;58663;52.040;4.634;2022-10-17T05:44:37;16.52;;;10.02;;
70997;SDS011;58663;52.040;4.634;2022-10-17T05:47:03;21.85;;;10.25;;
70997;SDS011;58663;52.040;4.634;2022-10-17T05:49:29;20.08;;;10.40;;
70997;SDS011;58663;52.040;4.634;2022-10-17T05:51:54;17.23;;;10.00;;
70997;SDS011;58663;52.040;4.634;2022-10-17T05:54:19;14.05;;;10.02;;
70997;SDS011;58663;52.040;4.634;2022-10-17T05:56:45;17.90;;;9.88;;
70997;SDS011;58663;52.040;4.634;2022-10-17T05:59:10;17.23;;;10.15;;
70997;SDS011;58663;52.040;4.634;2022-10-17T06:01:35;19.17;;;10.48;;
70997;SDS011;58663;52.040;4.634;2022-10-17T06:04:01;19.08;;;11.27;;
70997;SDS011;58663;52.040;4.634;2022-10-17T06:06:26;22.38;;;11.40;;
70997;SDS011;58663;52.040;4.634;2022-10-17T06:08:51;17.95;;;10.52;;
70997;SDS011;58663;52.040;4.634;2022-10-17T06:11:17;19.58;;;10.88;;
70997;SDS011;58663;52.040;4.634;2022-10-17T06:13:42;14.63;;;10.50;;
70997;SDS011;58663;52.040;4.634;2022-10-17T06:16:07;21.00;;;11.40;;
70997;SDS011;58663;52.040;4.634;2022-10-17T06:18:33;21.20;;;11.40;;
70997;SDS011;58663;52.040;4.634;2022-10-17T06:21:05;21.35;;;10.52;;
70997;SDS011;58663;52.040;4.634;2022-10-17T06:23:32;18.65;;;10.70;;
70997;SDS011;58663;52.040;4.634;2022-10-17T06:25:58;22.00;;;11.00;;
70997;SDS011;58663;52.040;4.634;2022-10-17T06:28:24;17.45;;;10.48;;
70997;SDS011;58663;52.040;4.634;2022-10-17T06:30:49;17.23;;;10.10;;
70997;SDS011;58663;52.040;4.634;2022-10-17T06:33:15;16.65;;;10.30;;
70997;SDS011;58663;52.040;4.634;2022-10-17T06:35:40;19.98;;;11.40;;
70997;SDS011;58663;52.040;4.634;2022-10-17T06:38:06;21.60;;;11.43;;
70997;SDS011;58663;52.040;4.634;2022-10-17T06:40:31;18.67;;;9.93;;
70997;SDS011;58663;52.040;4.634;2022-10-17T06:42:57;17.40;;;10.55;;
70997;SDS011;58663;52.040;4.634;2022-10-17T06:45:22;17.83;;;10.48;;
70997;SDS011;58663;52.040;4.634;2022-10-17T06:47:47;22.90;;;11.65;;
70997;SDS011;58663;52.040;4.634;2022-10-17T06:50:13;17.23;;;10.48;;
70997;SDS011;58663;52.040;4.634;2022-10-17T06:52:39;19.67;;;11.82;;
70997;SDS011;58663;52.040;4.634;2022-10-17T06:55:04;22.48;;;11.27;;
70997;SDS011;58663;52.040;4.634;2022-10-17T06:57:30;31.00;;;11.40;;
70997;SDS011;58663;52.040;4.634;2022-10-17T06:59:55;24.08;;;11.80;;
70997;SDS011;58663;52.040;4.634;2022-10-17T07:02:21;21.35;;;11.85;;
70997;SDS011;58663;52.040;4.634;2022-10-17T07:04:48;22.40;;;10.60;;
70997;SDS011;58663;52.040;4.634;2022-10-17T07:07:13;20.35;;;11.00;;
70997;SDS011;58663;52.040;4.634;2022-10-17T07:09:38;22.70;;;10.82;;
70997;SDS011;58663;52.040;4.634;2022-10-17T07:12:04;22.30;;;11.32;;
70997;SDS011;58663;52.040;4.634;2022-10-17T07:14:32;22.33;;;11.45;;
70997;SDS011;58663;52.040;4.634;2022-10-17T07:16:58;18.95;;;10.93;;
70997;SDS011;58663;52.040;4.634;2022-10-17T07:19:23;20.30;;;11.63;;
70997;SDS011;58663;52.040;4.634;2022-10-17T07:21:49;19.13;;;11.25;;
70997;SDS011;58663;52.040;4.634;2022-10-17T07:24:14;20.13;;;11.07;;
70997;SDS011;58663;52.040;4.634;2022-10-17T07:26:40;22.45;;;11.85;;
70997;SDS011;58663;52.040;4.634;2022-10-17T07:29:05;23.17;;;12.48;;
70997;SDS011;58663;52.040;4.634;2022-10-17T07:31:31;20.95;;;12.27;;
70997;SDS011;58663;52.040;4.634;2022-10-17T07:33:58;21.92;;;12.18;;
70997;SDS011;58663;52.040;4.634;2022-10-17T07:36:24;19.83;;;11.80;;
70997;SDS011;58663;52.040;4.634;2022-10-17T07:38:49;27.42;;;12.43;;
70997;SDS011;58663;52.040;4.634;2022-10-17T07:41:14;22.00;;;12.55;;
70997;SDS011;58663;52.040;4.634;2022-10-17T07:43:40;22.00;;;11.65;;
70997;SDS011;58663;52.040;4.634;2022-10-17T07:46:07;18.15;;;11.02;;
70997;SDS011;58663;52.040;4.634;2022-10-17T07:48:33;26.02;;;11.40;;
70997;SDS011;58663;52.040;4.634;2022-10-17T07:51:02;19.85;;;11.63;;
70997;SDS011;58663;52.040;4.634;2022-10-17T07:55:54;24.90;;;11.73;;
70997;SDS011;58663;52.040;4.634;2022-10-17T07:58:19;21.50;;;11.55;;
70997;SDS011;58663;52.040;4.634;2022-10-17T08:00:44;19.48;;;10.82;;
70997;SDS011;58663;52.040;4.634;2022-10-17T08:03:12;19.70;;;11.10;;
70997;SDS011;58663;52.040;4.634;2022-10-17T08:05:37;19.23;;;10.85;;
70997;SDS011;58663;52.040;4.634;2022-10-17T08:08:03;21.60;;;11.27;;
70997;SDS011;58663;52.040;4.634;2022-10-17T08:10:28;20.85;;;10.77;;
70997;SDS011;58663;52.040;4.634;2022-10-17T08:12:54;21.45;;;10.50;;
70997;SDS011;58663;52.040;4.634;2022-10-17T08:15:20;25.88;;;10.25;;
70997;SDS011;58663;52.040;4.634;2022-10-17T08:17:46;22.38;;;10.57;;
70997;SDS011;58663;52.040;4.634;2022-10-17T08:20:11;18.55;;;10.23;;
70997;SDS011;58663;52.040;4.634;2022-10-17T08:22:37;19.02;;;10.10;;
70997;SDS011;58663;52.040;4.634;2022-10-17T08:25:02;25.77;;;10.20;;
70997;SDS011;58663;52.040;4.634;2022-10-17T08:27:28;19.90;;;11.05;;
70997;SDS011;58663;52.040;4.634;2022-10-17T08:29:53;20.35;;;10.05;;
70997;SDS011;58663;52.040;4.634;2022-10-17T08:32:19;20.65;;;10.23;;
70997;SDS011;58663;52.040;4.634;2022-10-17T08:34:46;18.73;;;9.95;;
70997;SDS011;58663;52.040;4.634;2022-10-17T08:37:11;17.95;;;10.32;;
70997;SDS011;58663;52.040;4.634;2022-10-17T08:39:40;19.75;;;10.15;;
70997;SDS011;58663;52.040;4.634;2022-10-17T08:47:23;17.70;;;10.15;;
70997;SDS011;58663;52.040;4.634;2022-10-17T08:49:53;17.48;;;9.80;;
70997;SDS011;58663;52.040;4.634;2022-10-17T08:55:44;19.48;;;10.02;;
70997;SDS011;58663;52.040;4.634;2022-10-17T08:58:11;19.33;;;10.40;;
70997;SDS011;58663;52.040;4.634;2022-10-17T09:06:25;20.48;;;10.73;;
70997;SDS011;58663;52.040;4.634;2022-10-17T09:14:18;19.98;;;10.65;;
70997;SDS011;58663;52.040;4.634;2022-10-17T09:17:11;18.85;;;10.43;;
70997;SDS011;58663;52.040;4.634;2022-10-17T09:19:42;20.48;;;10.85;;
70997;SDS011;58663;52.040;4.634;2022-10-17T09:22:33;20.67;;;11.15;;
70997;SDS011;58663;52.040;4.634;2022-10-17T09:25:04;16.27;;;10.18;;
70997;SDS011;58663;52.040;4.634;2022-10-17T09:27:41;18.10;;;10.20;;
70997;SDS011;58663;52.040;4.634;2022-10-17T09:33:16;19.15;;;10.25;;
70997;SDS011;58663;52.040;4.634;2022-10-17T09:35:47;19.75;;;9.98;;
70997;SDS011;58663;52.040;4.634;2022-10-17T09:38:17;20.90;;;10.40;;
70997;SDS011;58663;52.040;4.634;2022-10-17T09:40:45;19.48;;;9.40;;
70997;SDS011;58663;52.040;4.634;2022-10-17T09:43:15;20.58;;;9.60;;
70997;SDS011;58663;52.040;4.634;2022-10-17T09:51:14;15.43;;;8.75;;
70997;SDS011;58663;52.040;4.634;2022-10-17T09:53:41;15.10;;;8.73;;
70997;SDS011;58663;52.040;4.634;2022-10-17T09:56:10;16.92;;;8.85;;
70997;SDS011;58663;52.040;4.634;2022-10-17T10:01:14;20.95;;;9.40;;
70997;SDS011;58663;52.040;4.634;2022-10-17T10:03:39;14.98;;;9.55;;
70997;SDS011;58663;52.040;4.634;2022-10-17T10:08:34;33.95;;;9.93;;
70997;SDS011;58663;52.040;4.634;2022-10-17T10:11:03;37.95;;;11.82;;
70997;SDS011;58663;52.040;4.634;2022-10-17T10:13:31;30.73;;;10.27;;
70997;SDS011;58663;52.040;4.634;2022-10-17T10:16:15;14.93;;;9.48;;
70997;SDS011;58663;52.040;4.634;2022-10-17T10:18:56;13.07;;;8.43;;
70997;SDS011;58663;52.040;4.634;2022-10-17T10:21:23;17.23;;;9.57;;
70997;SDS011;58663;52.040;4.634;2022-10-17T10:24:10;16.50;;;8.15;;
70997;SDS011;58663;52.040;4.634;2022-10-17T10:26:41;15.13;;;7.97;;
70997;SDS011;58663;52.040;4.634;2022-10-17T10:31:48;13.55;;;7.50;;
70997;SDS011;58663;52.040;4.634;2022-10-17T10:36:48;14.73;;;6.70;;
70997;SDS011;58663;52.040;4.634;2022-10-17T10:39:27;12.00;;;7.72;;
70997;SDS011;58663;52.040;4.634;2022-10-17T10:41:56;12.10;;;6.43;;
70997;SDS011;58663;52.040;4.634;2022-10-17T10:44:23;9.88;;;5.60;;
70997;SDS011;58663;52.040;4.634;2022-10-17T10:47:06;9.88;;;6.35;;
70997;SDS011;58663;52.040;4.634;2022-10-17T10:49:52;9.57;;;6.03;;
70997;SDS011;58663;52.040;4.634;2022-10-17T10:55:46;9.18;;;6.00;;
70997;SDS011;58663;52.040;4.634;2022-10-17T10:58:20;10.50;;;6.18;;
70997;SDS011;58663;52.040;4.634;2022-10-17T11:00:48;8.32;;;6.18;;
70997;SDS011;58663;52.040;4.634;2022-10-17T11:05:57;8.90;;;5.82;;
70997;SDS011;58663;52.040;4.634;2022-10-17T11:08:46;6.28;;;5.47;;
70997;SDS011;58663;52.040;4.634;2022-10-17T11:11:15;10.40;;;5.13;;
70997;SDS011;58663;52.040;4.634;2022-10-17T11:13:49;7.32;;;4.72;;
70997;SDS011;58663;52.040;4.634;2022-10-17T11:19:03;5.50;;;3.22;;
70997;SDS011;58663;52.040;4.634;2022-10-17T11:24:15;8.40;;;3.60;;
70997;SDS011;58663;52.040;4.634;2022-10-17T11:26:49;5.70;;;3.83;;
70997;SDS011;58663;52.040;4.634;2022-10-17T11:29:18;3.70;;;3.17;;
70997;SDS011;58663;52.040;4.634;2022-10-17T11:31:45;6.45;;;4.10;;
70997;SDS011;58663;52.040;4.634;2022-10-17T11:34:16;8.57;;;3.58;;
70997;SDS011;58663;52.040;4.634;2022-10-17T11:36:45;7.13;;;3.80;;
70997;SDS011;58663;52.040;4.634;2022-10-17T11:39:21;5.65;;;3.60;;
70997;SDS011;58663;52.040;4.634;2022-10-17T11:42:11;5.25;;;3.90;;
70997;SDS011;58663;52.040;4.634;2022-10-17T11:44:42;8.13;;;3.85;;
70997;SDS011;58663;52.040;4.634;2022-10-17T11:49:56;6.78;;;4.53;;
70997;SDS011;58663;52.040;4.634;2022-10-17T11:52:38;6.55;;;4.82;;
70997;SDS011;58663;52.040;4.634;2022-10-17T11:55:13;9.65;;;5.25;;
70997;SDS011;58663;52.040;4.634;2022-10-17T12:08:17;6.00;;;4.30;;
70997;SDS011;58663;52.040;4.634;2022-10-17T12:18:42;8.68;;;4.68;;
70997;SDS011;58663;52.040;4.634;2022-10-17T12:21:08;8.88;;;4.53;;
70997;SDS011;58663;52.040;4.634;2022-10-17T12:23:33;6.45;;;5.00;;
70997;SDS011;58663;52.040;4.634;2022-10-17T12:26:01;8.52;;;4.78;;
70997;SDS011;58663;52.040;4.634;2022-10-17T12:31:10;8.07;;;5.10;;
70997;SDS011;58663;52.040;4.634;2022-10-17T12:33:55;6.03;;;4.28;;
70997;SDS011;58663;52.040;4.634;2022-10-17T12:44:04;7.78;;;4.57;;
70997;SDS011;58663;52.040;4.634;2022-10-17T12:46:50;7.68;;;4.57;;
70997;SDS011;58663;52.040;4.634;2022-10-17T12:54:45;9.38;;;4.68;;
70997;SDS011;58663;52.040;4.634;2022-10-17T12:59:59;8.10;;;4.43;;
70997;SDS011;58663;52.040;4.634;2022-10-17T13:02:29;7.32;;;4.55;;
70997;SDS011;58663;52.040;4.634;2022-10-17T13:05:15;7.70;;;5.22;;
70997;SDS011;58663;52.040;4.634;2022-10-17T13:07:55;4.63;;;3.75;;
70997;SDS011;58663;52.040;4.634;2022-10-17T13:10:23;9.02;;;3.67;;
70997;SDS011;58663;52.040;4.634;2022-10-17T13:12:50;7.10;;;3.22;;
70997;SDS011;58663;52.040;4.634;2022-10-17T13:15:18;8.35;;;4.40;;
70997;SDS011;58663;52.040;4.634;2022-10-17T13:17:44;6.05;;;3.50;;
70997;SDS011;58663;52.040;4.634;2022-10-17T13:20:20;7.75;;;4.00;;
70997;SDS011;58663;52.040;4.634;2022-10-17T13:22:49;8.13;;;3.55;;
70997;SDS011;58663;52.040;4.634;2022-10-17T13:25:16;8.48;;;4.32;;
70997;SDS011;58663;52.040;4.634;2022-10-17T13:27:44;7.78;;;4.13;;
70997;SDS011;58663;52.040;4.634;2022-10-17T13:30:23;5.10;;;3.63;;
70997;SDS011;58663;52.040;4.634;2022-10-17T13:32:56;9.30;;;3.72;;
70997;SDS011;58663;52.040;4.634;2022-10-17T13:35:32;6.97;;;3.22;;
70997;SDS011;58663;52.040;4.634;2022-10-17T13:37:59;5.43;;;3.63;;
70997;SDS011;58663;52.040;4.634;2022-10-17T13:40:27;4.60;;;3.30;;
70997;SDS011;58663;52.040;4.634;2022-10-17T13:42:55;6.30;;;3.45;;
70997;SDS011;58663;52.040;4.634;2022-10-17T13:45:27;7.78;;;3.33;;
70997;SDS011;58663;52.040;4.634;2022-10-17T13:48:01;8.02;;;3.20;;
70997;SDS011;58663;52.040;4.634;2022-10-17T13:53:07;5.45;;;3.47;;
70997;SDS011;58663;52.040;4.634;2022-10-17T13:55:54;4.10;;;2.55;;
70997;SDS011;58663;52.040;4.634;2022-10-17T13:58:22;4.60;;;2.67;;
70997;SDS011;58663;52.040;4.634;2022-10-17T14:00:48;6.97;;;2.90;;
70997;SDS011;58663;52.040;4.634;2022-10-17T14:03:16;6.07;;;3.10;;
70997;SDS011;58663;52.040;4.634;2022-10-17T14:05:58;9.32;;;3.50;;
70997;SDS011;58663;52.040;4.634;2022-10-17T14:08:24;5.07;;;2.80;;
70997;SDS011;58663;52.040;4.634;2022-10-17T14:10:50;3.90;;;2.90;;
70997;SDS011;58663;52.040;4.634;2022-10-17T14:13:22;8.82;;;3.00;;
70997;SDS011;58663;52.040;4.634;2022-10-17T14:15:51;7.18;;;2.83;;
70997;SDS011;58663;52.040;4.634;2022-10-17T14:18:21;4.57;;;2.67;;
70997;SDS011;58663;52.040;4.634;2022-10-17T14:20:50;3.30;;;2.22;;
70997;SDS011;58663;52.040;4.634;2022-10-17T14:26:07;7.07;;;2.58;;
70997;SDS011;58663;52.040;4.634;2022-10-17T14:28:33;8.65;;;2.58;;
70997;SDS011;58663;52.040;4.634;2022-10-17T14:33:57;5.25;;;2.35;;
70997;SDS011;58663;52.040;4.634;2022-10-17T14:36:56;5.55;;;2.65;;
70997;SDS011;58663;52.040;4.634;2022-10-17T14:39:17;4.55;;;2.60;;
70997;SDS011;58663;52.040;4.634;2022-10-17T14:41:44;6.55;;;2.65;;
70997;SDS011;58663;52.040;4.634;2022-10-17T14:44:23;4.55;;;2.78;;
70997;SDS011;58663;52.040;4.634;2022-10-17T14:46:57;5.93;;;3.08;;
70997;SDS011;58663;52.040;4.634;2022-10-17T14:49:32;7.45;;;4.35;;
70997;SDS011;58663;52.040;4.634;2022-10-17T14:54:41;4.50;;;2.30;;
70997;SDS011;58663;52.040;4.634;2022-10-17T14:57:18;6.05;;;4.07;;
70997;SDS011;58663;52.040;4.634;2022-10-17T14:59:47;7.43;;;2.88;;
70997;SDS011;58663;52.040;4.634;2022-10-17T15:02:12;7.57;;;2.83;;
70997;SDS011;58663;52.040;4.634;2022-10-17T15:04:37;7.10;;;2.40;;
70997;SDS011;58663;52.040;4.634;2022-10-17T15:07:03;2.78;;;2.10;;
70997;SDS011;58663;52.040;4.634;2022-10-17T15:09:28;9.63;;;3.05;;
70997;SDS011;58663;52.040;4.634;2022-10-17T15:12:00;5.28;;;2.30;;
70997;SDS011;58663;52.040;4.634;2022-10-17T15:14:26;5.28;;;2.55;;
70997;SDS011;58663;52.040;4.634;2022-10-17T15:16:52;8.68;;;3.03;;
70997;SDS011;58663;52.040;4.634;2022-10-17T15:19:17;7.72;;;2.85;;
70997;SDS011;58663;52.040;4.634;2022-10-17T15:21:42;4.47;;;2.45;;
70997;SDS011;58663;52.040;4.634;2022-10-17T15:24:08;4.00;;;2.38;;
70997;SDS011;58663;52.040;4.634;2022-10-17T15:26:33;5.15;;;3.10;;
70997;SDS011;58663;52.040;4.634;2022-10-17T15:28:59;6.93;;;2.72;;
70997;SDS011;58663;52.040;4.634;2022-10-17T15:31:25;4.32;;;2.63;;
70997;SDS011;58663;52.040;4.634;2022-10-17T15:33:51;3.40;;;2.40;;
70997;SDS011;58663;52.040;4.634;2022-10-17T15:36:21;5.05;;;2.63;;
70997;SDS011;58663;52.040;4.634;2022-10-17T15:38:56;6.25;;;2.75;;
70997;SDS011;58663;52.040;4.634;2022-10-17T15:41:23;5.60;;;2.80;;
70997;SDS011;58663;52.040;4.634;2022-10-17T15:43:50;9.07;;;3.08;;
70997;SDS011;58663;52.040;4.634;2022-10-17T15:46:20;5.65;;;2.70;;
70997;SDS011;58663;52.040;4.634;2022-10-17T15:48:48;6.70;;;3.35;;
70997;SDS011;58663;52.040;4.634;2022-10-17T15:51:13;6.22;;;2.90;;
70997;SDS011;58663;52.040;4.634;2022-10-17T15:53:39;5.88;;;3.60;;
70997;SDS011;58663;52.040;4.634;2022-10-17T15:56:04;11.98;;;2.80;;
70997;SDS011;58663;52.040;4.634;2022-10-17T15:58:35;5.10;;;2.80;;
70997;SDS011;58663;52.040;4.634;2022-10-17T16:01:01;7.75;;;3.00;;
70997;SDS011;58663;52.040;4.634;2022-10-17T16:03:28;8.52;;;2.65;;
70997;SDS011;58663;52.040;4.634;2022-10-17T16:05:54;6.72;;;2.80;;
70997;SDS011;58663;52.040;4.634;2022-10-17T16:08:20;8.18;;;2.85;;
70997;SDS011;58663;52.040;4.634;2022-10-17T16:10:45;5.05;;;3.17;;
70997;SDS011;58663;52.040;4.634;2022-10-17T16:13:17;4.50;;;2.75;;
70997;SDS011;58663;52.040;4.634;2022-10-17T16:15:48;5.75;;;2.38;;
70997;SDS011;58663;52.040;4.634;2022-10-17T16:18:13;5.13;;;2.50;;
70997;SDS011;58663;52.040;4.634;2022-10-17T16:20:39;4.88;;;2.58;;
70997;SDS011;58663;52.040;4.634;2022-10-17T16:23:04;6.75;;;2.55;;
70997;SDS011;58663;52.040;4.634;2022-10-17T16:25:31;6.00;;;2.60;;
70997;SDS011;58663;52.040;4.634;2022-10-17T16:27:57;9.52;;;2.60;;
70997;SDS011;58663;52.040;4.634;2022-10-17T16:30:24;7.40;;;2.50;;
70997;SDS011;58663;52.040;4.634;2022-10-17T16:32:51;4.28;;;1.75;;
70997;SDS011;58663;52.040;4.634;2022-10-17T16:35:19;5.70;;;1.90;;
70997;SDS011;58663;52.040;4.634;2022-10-17T16:37:45;7.10;;;1.60;;
70997;SDS011;58663;52.040;4.634;2022-10-17T16:40:11;4.70;;;1.88;;
70997;SDS011;58663;52.040;4.634;2022-10-17T16:42:37;5.78;;;1.73;;
70997;SDS011;58663;52.040;4.634;2022-10-17T16:45:02;5.47;;;1.95;;
70997;SDS011;58663;52.040;4.634;2022-10-17T16:47:28;3.10;;;1.30;;
70997;SDS011;58663;52.040;4.634;2022-10-17T16:49:53;6.10;;;1.80;;
70997;SDS011;58663;52.040;4.634;2022-10-17T16:52:19;3.28;;;1.70;;